createdAt,value
2022-10-23T00:00:15.707Z,92.14
2022-10-23T00:01:15.612Z,92.25
2022-10-23T00:02:15.618Z,92.25
2022-10-23T00:03:15.557Z,92.96
2022-10-23T00:04:15.547Z,93.98
2022-10-23T00:05:15.622Z,93.98
2022-10-23T00:06:15.592Z,93.16
2022-10-23T00:07:15.563Z,92.45
2022-10-23T00:08:15.493Z,91.43
2022-10-23T00:09:15.509Z,91.60
2022-10-23T00:10:15.505Z,91.33
2022-10-23T00:11:15.462Z,91.13
2022-10-23T00:12:15.494Z,91.13
2022-10-23T00:13:15.479Z,91.33
2022-10-23T00:14:15.440Z,91.53
2022-10-23T00:15:15.424Z,92.09
2022-10-23T00:16:15.434Z,92.19
2022-10-23T00:17:15.430Z,92.49
2022-10-23T00:18:15.400Z,93.10
2022-10-23T00:19:15.404Z,93.21
2022-10-23T00:20:15.487Z,94.43
2022-10-23T00:21:15.387Z,93.82
2022-10-23T00:22:15.400Z,93.10
2022-10-23T00:23:15.485Z,92.49
2022-10-23T00:24:15.377Z,92.90
2022-10-23T00:25:15.475Z,94.12
2022-10-23T00:26:15.320Z,93.71
2022-10-23T00:27:15.303Z,93.92
2022-10-23T00:28:15.304Z,94.84
2022-10-23T00:29:15.295Z,95.24
2022-10-23T00:30:15.316Z,95.24
2022-10-23T00:31:15.308Z,94.73
2022-10-23T00:32:15.289Z,94.53
2022-10-23T00:33:15.249Z,95.54
2022-10-23T00:34:15.237Z,95.34
2022-10-23T00:35:15.248Z,95.04
2022-10-23T00:36:15.237Z,96.15
2022-10-23T00:37:15.262Z,95.45
2022-10-23T00:38:15.200Z,94.63
2022-10-23T00:39:15.221Z,94.43
2022-10-23T00:40:15.175Z,94.53
2022-10-23T00:41:15.179Z,94.23
2022-10-23T00:42:15.185Z,94.63
2022-10-23T00:43:15.162Z,95.65
2022-10-23T00:44:15.116Z,94.93
2022-10-23T00:45:15.145Z,94.02
2022-10-23T00:46:15.114Z,93.21
2022-10-23T00:47:15.192Z,93.10
2022-10-23T00:48:15.081Z,93.01
2022-10-23T00:49:15.142Z,93.21
2022-10-23T00:50:15.141Z,93.51
2022-10-23T00:51:15.105Z,94.12
2022-10-23T00:52:15.059Z,93.82
2022-10-23T00:53:15.071Z,93.41
2022-10-23T00:54:30.421Z,94.32
2022-10-23T00:55:15.052Z,95.04
2022-10-23T00:56:15.033Z,94.73
2022-10-23T00:57:15.118Z,94.93
2022-10-23T00:58:15.031Z,94.12
2022-10-23T00:59:14.997Z,94.07
2022-10-23T01:00:15.014Z,94.12
2022-10-23T01:01:15.101Z,93.71
2022-10-23T01:02:15.143Z,93.82
2022-10-23T01:03:14.976Z,93.76
2022-10-23T01:04:15.015Z,93.55
2022-10-23T01:05:14.952Z,93.55
2022-10-23T01:06:14.924Z,93.76
2022-10-23T01:07:14.915Z,94.78
2022-10-23T01:08:14.896Z,95.08
2022-10-23T01:09:14.872Z,95.69
2022-10-23T01:10:14.872Z,96.06
2022-10-23T01:11:14.856Z,95.04
2022-10-23T01:12:14.868Z,95.04
2022-10-23T01:13:14.893Z,94.53
2022-10-23T01:14:14.846Z,94.93
2022-10-23T01:15:14.815Z,94.43
2022-10-23T01:16:14.818Z,94.23
2022-10-23T01:17:14.816Z,93.62
2022-10-23T01:18:14.817Z,93.92
2022-10-23T01:19:14.808Z,94.23
2022-10-23T01:20:14.774Z,93.82
2022-10-23T01:21:14.767Z,92.90
2022-10-23T01:22:14.776Z,92.60
2022-10-23T01:23:14.736Z,93.01
2022-10-23T01:24:14.743Z,94.02
2022-10-23T01:25:14.702Z,93.31
2022-10-23T01:26:14.712Z,93.10
2022-10-23T01:27:14.696Z,92.90
2022-10-23T01:28:14.685Z,93.41
2022-10-23T01:29:14.674Z,93.31
2022-10-23T01:30:14.684Z,93.62
2022-10-23T01:31:14.649Z,92.90
2022-10-23T01:32:14.640Z,93.82
2022-10-23T01:33:14.670Z,93.71
2022-10-23T01:34:14.624Z,94.23
2022-10-23T01:35:14.657Z,94.32
2022-10-23T01:36:14.597Z,93.31
2022-10-23T01:37:14.629Z,94.32
2022-10-23T01:38:14.626Z,93.41
2022-10-23T01:39:14.589Z,93.01
2022-10-23T01:40:14.602Z,94.23
2022-10-23T01:41:14.555Z,94.43
2022-10-23T01:42:14.558Z,92.70
2022-10-23T01:43:14.544Z,92.45
2022-10-23T01:44:14.544Z,93.62
2022-10-23T01:45:14.518Z,92.60
2022-10-23T01:46:14.534Z,91.78
2022-10-23T01:47:14.540Z,91.48
2022-10-23T01:48:14.496Z,92.09
2022-10-23T01:49:14.482Z,92.33
2022-10-23T01:50:14.475Z,92.44
2022-10-23T01:51:14.477Z,92.33
2022-10-23T01:52:14.447Z,92.03
2022-10-23T01:53:14.420Z,91.72
2022-10-23T01:54:14.459Z,94.43
2022-10-23T01:55:14.439Z,92.49
2022-10-23T01:56:14.399Z,92.40
2022-10-23T01:57:14.426Z,91.38
2022-10-23T01:58:14.400Z,90.77
2022-10-23T01:59:14.364Z,90.66
2022-10-23T02:00:14.376Z,90.36
2022-10-23T02:01:14.471Z,90.46
2022-10-23T02:02:14.438Z,91.01
2022-10-23T02:03:14.393Z,91.31
2022-10-23T02:04:14.318Z,91.83
2022-10-23T02:05:14.326Z,93.05
2022-10-23T02:06:14.316Z,92.94
2022-10-23T02:07:14.317Z,93.86
2022-10-23T02:08:14.289Z,93.90
2022-10-23T02:09:14.290Z,94.01
2022-10-23T02:10:14.277Z,94.72
2022-10-23T02:11:14.267Z,94.11
2022-10-23T02:12:14.281Z,94.42
2022-10-23T02:13:14.247Z,94.21
2022-10-23T02:14:14.239Z,93.90
2022-10-23T02:15:14.235Z,93.50
2022-10-23T02:16:14.209Z,93.40
2022-10-23T02:17:14.214Z,93.15
2022-10-23T02:18:14.231Z,93.40
2022-10-23T02:19:14.189Z,93.15
2022-10-23T02:20:14.157Z,92.74
2022-10-23T02:21:14.142Z,92.44
2022-10-23T02:22:14.161Z,92.54
2022-10-23T02:23:14.170Z,92.23
2022-10-23T02:24:14.109Z,92.18
2022-10-23T02:25:14.112Z,92.38
2022-10-23T02:26:14.094Z,92.58
2022-10-23T02:27:14.106Z,94.52
2022-10-23T02:28:14.089Z,94.82
2022-10-23T02:29:14.076Z,93.80
2022-10-23T02:30:14.056Z,92.79
2022-10-23T02:31:14.054Z,92.07
2022-10-23T02:32:14.059Z,92.18
2022-10-23T02:33:14.098Z,92.48
2022-10-23T02:34:13.967Z,92.79
2022-10-23T02:35:14.029Z,93.19
2022-10-23T02:36:14.020Z,94.01
2022-10-23T02:37:14.028Z,93.90
2022-10-23T02:38:14.004Z,93.80
2022-10-23T02:39:13.985Z,94.31
2022-10-23T02:40:13.962Z,93.80
2022-10-23T02:41:13.950Z,94.21
2022-10-23T02:42:13.989Z,94.52
2022-10-23T02:43:13.939Z,93.29
2022-10-23T02:44:13.906Z,93.40
2022-10-23T02:45:13.897Z,93.70
2022-10-23T02:46:13.953Z,93.80
2022-10-23T02:47:13.916Z,92.84
2022-10-23T02:48:13.911Z,92.48
2022-10-23T02:49:13.860Z,92.58
2022-10-23T02:50:13.854Z,93.90
2022-10-23T02:51:13.877Z,94.07
2022-10-23T02:52:13.838Z,94.52
2022-10-23T02:53:13.844Z,95.08
2022-10-23T02:54:13.815Z,95.79
2022-10-23T02:55:13.803Z,93.96
2022-10-23T02:56:13.812Z,94.17
2022-10-23T02:57:13.768Z,93.96
2022-10-23T02:58:14.031Z,93.96
2022-10-23T02:59:13.791Z,93.55
2022-10-23T03:00:13.770Z,93.55
2022-10-23T03:01:13.790Z,94.07
2022-10-23T03:02:13.833Z,94.21
2022-10-23T03:03:13.824Z,94.11
2022-10-23T03:04:13.724Z,94.88
2022-10-23T03:05:13.732Z,94.17
2022-10-23T03:06:13.695Z,93.40
2022-10-23T03:07:13.710Z,93.19
2022-10-23T03:08:13.673Z,93.90
2022-10-23T03:09:13.688Z,93.40
2022-10-23T03:10:13.656Z,93.60
2022-10-23T03:11:13.657Z,95.23
2022-10-23T03:12:13.626Z,95.23
2022-10-23T03:13:13.661Z,94.82
2022-10-23T03:14:13.638Z,94.92
2022-10-23T03:15:13.584Z,96.04
2022-10-23T03:16:13.578Z,96.66
2022-10-23T03:17:13.579Z,94.62
2022-10-23T03:18:13.642Z,95.59
2022-10-23T03:19:14.067Z,94.37
2022-10-23T03:20:13.564Z,94.17
2022-10-23T03:21:13.536Z,94.17
2022-10-23T03:22:13.524Z,94.31
2022-10-23T03:23:13.527Z,95.33
2022-10-23T03:24:13.527Z,95.84
2022-10-23T03:25:13.481Z,94.31
2022-10-23T03:26:13.513Z,93.90
2022-10-23T03:27:13.462Z,94.42
2022-10-23T03:28:13.462Z,94.52
2022-10-23T03:29:13.462Z,94.82
2022-10-23T03:30:13.445Z,94.82
2022-10-23T03:31:13.466Z,94.72
2022-10-23T03:32:13.436Z,94.92
2022-10-23T03:33:13.434Z,94.62
2022-10-23T03:34:13.402Z,94.42
2022-10-23T03:35:13.422Z,93.80
2022-10-23T03:36:13.376Z,93.70
2022-10-23T03:37:13.320Z,94.31
2022-10-23T03:38:13.375Z,94.42
2022-10-23T03:39:13.358Z,94.62
2022-10-23T03:40:13.371Z,95.13
2022-10-23T03:41:13.368Z,95.23
2022-10-23T03:42:13.316Z,95.13
2022-10-23T03:43:13.318Z,95.53
2022-10-23T03:44:13.319Z,95.23
2022-10-23T03:45:13.305Z,95.33
2022-10-23T03:46:13.312Z,95.03
2022-10-23T03:47:13.315Z,95.64
2022-10-23T03:48:13.254Z,95.58
2022-10-23T03:49:13.241Z,95.23
2022-10-23T03:50:13.267Z,95.23
2022-10-23T03:51:13.235Z,94.82
2022-10-23T03:52:13.275Z,94.52
2022-10-23T03:53:13.232Z,94.62
2022-10-23T03:54:13.209Z,95.03
2022-10-23T03:55:13.237Z,95.03
2022-10-23T03:56:13.203Z,95.33
2022-10-23T03:57:13.184Z,94.62
2022-10-23T03:58:13.182Z,95.43
2022-10-23T03:59:13.162Z,95.74
2022-10-23T04:00:13.150Z,95.94
2022-10-23T04:01:13.236Z,94.62
2022-10-23T04:02:13.168Z,95.43
2022-10-23T04:03:13.133Z,95.84
2022-10-23T04:04:13.135Z,95.84
2022-10-23T04:05:13.095Z,95.23
2022-10-23T04:06:13.155Z,95.43
2022-10-23T04:07:13.058Z,95.94
2022-10-23T04:08:17.521Z,95.53
2022-10-23T04:10:13.079Z,94.92
2022-10-23T04:11:13.032Z,95.03
2022-10-23T04:12:13.056Z,95.03
2022-10-23T04:13:13.015Z,94.52
2022-10-23T04:14:13.013Z,94.11
2022-10-23T04:15:13.006Z,94.01
2022-10-23T04:16:13.040Z,94.11
2022-10-23T04:17:13.001Z,93.90
2022-10-23T04:18:12.957Z,93.50
2022-10-23T04:19:12.968Z,93.60
2022-10-23T04:20:12.987Z,94.11
2022-10-23T04:21:12.947Z,95.03
2022-10-23T04:22:12.923Z,94.52
2022-10-23T04:23:12.912Z,94.21
2022-10-23T04:24:12.907Z,94.21
2022-10-23T04:25:12.880Z,94.05
2022-10-23T04:26:12.914Z,93.95
2022-10-23T04:27:12.894Z,94.15
2022-10-23T04:28:12.850Z,94.46
2022-10-23T04:29:12.867Z,94.60
2022-10-23T04:30:12.886Z,94.81
2022-10-23T04:31:12.841Z,95.01
2022-10-23T04:32:12.826Z,95.21
2022-10-23T04:33:12.828Z,95.42
2022-10-23T04:34:12.830Z,96.34
2022-10-23T04:35:12.783Z,97.16
2022-10-23T04:36:12.782Z,97.00
2022-10-23T04:37:12.781Z,96.80
2022-10-23T04:38:12.754Z,97.21
2022-10-23T04:39:12.745Z,96.70
2022-10-23T04:40:12.750Z,95.98
2022-10-23T04:41:12.701Z,96.70
2022-10-23T04:42:12.816Z,95.48
2022-10-23T04:43:12.700Z,96.60
2022-10-23T04:44:12.725Z,96.50
2022-10-23T04:45:12.695Z,96.50
2022-10-23T04:46:12.684Z,95.89
2022-10-23T04:47:12.696Z,96.39
2022-10-23T04:48:12.666Z,96.80
2022-10-23T04:49:12.703Z,96.60
2022-10-23T04:50:12.655Z,95.89
2022-10-23T04:51:12.621Z,95.98
2022-10-23T04:52:12.637Z,95.68
2022-10-23T04:53:12.639Z,95.17
2022-10-23T04:54:12.638Z,95.37
2022-10-23T04:55:12.594Z,95.89
2022-10-23T04:56:12.620Z,96.09
2022-10-23T04:57:12.566Z,96.39
2022-10-23T04:58:12.579Z,96.30
2022-10-23T04:59:12.546Z,96.09
2022-10-23T05:00:12.538Z,95.78
2022-10-23T05:01:12.638Z,96.66
2022-10-23T05:02:12.536Z,95.78
2022-10-23T05:03:12.507Z,96.66
2022-10-23T05:04:12.500Z,94.92
2022-10-23T05:05:12.508Z,93.60
2022-10-23T05:06:12.481Z,93.19
2022-10-23T05:07:12.531Z,94.15
2022-10-23T05:08:15.625Z,94.26
2022-10-23T05:09:12.452Z,93.44
2022-10-23T05:10:12.431Z,93.33
2022-10-23T05:11:12.440Z,93.33
2022-10-23T05:12:12.443Z,93.44
2022-10-23T05:13:12.433Z,93.33
2022-10-23T05:14:12.405Z,93.33
2022-10-23T05:15:12.408Z,94.35
2022-10-23T05:16:12.371Z,94.56
2022-10-23T05:17:12.361Z,95.28
2022-10-23T05:18:12.382Z,94.87
2022-10-23T05:19:12.351Z,94.66
2022-10-23T05:20:12.323Z,94.76
2022-10-23T05:21:12.339Z,94.15
2022-10-23T05:22:12.315Z,94.76
2022-10-23T05:23:12.319Z,93.95
2022-10-23T05:24:12.337Z,93.74
2022-10-23T05:25:12.263Z,93.33
2022-10-23T05:26:12.273Z,93.13
2022-10-23T05:27:12.259Z,93.24
2022-10-23T05:28:12.258Z,92.72
2022-10-23T05:29:12.353Z,92.97
2022-10-23T05:30:12.239Z,93.28
2022-10-23T05:31:12.217Z,93.59
2022-10-23T05:32:12.267Z,94.91
2022-10-23T05:33:12.200Z,94.81
2022-10-23T05:34:13.427Z,95.12
2022-10-23T05:35:12.160Z,95.73
2022-10-23T05:36:12.121Z,95.21
2022-10-23T05:37:12.146Z,95.21
2022-10-23T05:38:12.112Z,95.73
2022-10-23T05:39:12.141Z,96.03
2022-10-23T05:40:12.160Z,95.73
2022-10-23T05:41:12.140Z,95.83
2022-10-23T05:42:12.073Z,96.03
2022-10-23T05:43:12.056Z,96.34
2022-10-23T05:44:12.060Z,95.52
2022-10-23T05:45:12.028Z,95.21
2022-10-23T05:46:12.029Z,95.01
2022-10-23T05:47:12.036Z,94.71
2022-10-23T05:48:22.842Z,94.50
2022-10-23T05:49:12.002Z,94.71
2022-10-23T05:50:11.991Z,95.62
2022-10-23T05:51:12.012Z,95.32
2022-10-23T05:52:11.965Z,94.91
2022-10-23T05:53:11.970Z,95.01
2022-10-23T05:54:11.960Z,95.52
2022-10-23T05:55:11.926Z,97.05
2022-10-23T05:56:11.919Z,97.05
2022-10-23T05:57:11.989Z,97.00
2022-10-23T05:58:11.908Z,97.21
2022-10-23T05:59:11.916Z,96.91
2022-10-23T06:00:11.903Z,96.50
2022-10-23T06:01:11.984Z,95.94
2022-10-23T06:02:11.967Z,95.89
2022-10-23T06:03:11.839Z,95.68
2022-10-23T06:04:11.863Z,96.30
2022-10-23T06:05:11.835Z,96.60
2022-10-23T06:06:11.842Z,96.60
2022-10-23T06:07:11.825Z,96.91
2022-10-23T06:08:11.807Z,96.30
2022-10-23T06:09:11.807Z,97.16
2022-10-23T06:10:11.778Z,97.62
2022-10-23T06:11:11.815Z,96.91
2022-10-23T06:12:11.787Z,96.50
2022-10-23T06:13:11.736Z,97.62
2022-10-23T06:14:11.735Z,97.00
2022-10-23T06:15:11.719Z,97.52
2022-10-23T06:16:11.711Z,96.09
2022-10-23T06:17:11.719Z,95.98
2022-10-23T06:18:11.718Z,96.19
2022-10-23T06:19:11.691Z,96.50
2022-10-23T06:20:11.677Z,96.95
2022-10-23T06:21:11.675Z,96.54
2022-10-23T06:22:11.680Z,96.44
2022-10-23T06:23:11.687Z,96.75
2022-10-23T06:24:11.638Z,97.05
2022-10-23T06:25:11.644Z,96.75
2022-10-23T06:26:11.632Z,95.83
2022-10-23T06:27:11.604Z,95.78
2022-10-23T06:28:11.622Z,96.30
2022-10-23T06:29:11.585Z,95.78
2022-10-23T06:30:11.586Z,95.98
2022-10-23T06:31:11.563Z,96.23
2022-10-23T06:32:11.549Z,95.78
2022-10-23T06:33:11.571Z,95.37
2022-10-23T06:34:11.532Z,95.01
2022-10-23T06:35:11.553Z,95.89
2022-10-23T06:36:11.528Z,96.60
2022-10-23T06:37:11.508Z,96.60
2022-10-23T06:38:11.489Z,96.09
2022-10-23T06:39:11.509Z,96.30
2022-10-23T06:40:11.484Z,95.58
2022-10-23T06:41:11.491Z,95.58
2022-10-23T06:42:11.465Z,95.48
2022-10-23T06:43:11.454Z,95.28
2022-10-23T06:44:11.496Z,95.68
2022-10-23T06:45:11.447Z,95.23
2022-10-23T06:46:11.411Z,94.82
2022-10-23T06:47:11.473Z,94.72
2022-10-23T06:48:11.423Z,95.13
2022-10-23T06:49:11.385Z,94.72
2022-10-23T06:50:14.550Z,94.82
2022-10-23T06:51:11.379Z,94.62
2022-10-23T06:52:18.526Z,94.31
2022-10-23T06:53:11.337Z,93.80
2022-10-23T06:54:11.323Z,94.21
2022-10-23T06:55:11.318Z,93.35
2022-10-23T06:56:11.307Z,93.25
2022-10-23T06:57:11.300Z,92.84
2022-10-23T06:58:11.320Z,92.94
2022-10-23T06:59:11.307Z,92.54
2022-10-23T07:00:11.278Z,92.54
2022-10-23T07:01:11.397Z,92.44
2022-10-23T07:02:11.258Z,92.23
2022-10-23T07:03:11.284Z,92.33
2022-10-23T07:04:11.230Z,93.25
2022-10-23T07:05:13.602Z,91.27
2022-10-23T07:06:11.225Z,90.66
2022-10-23T07:07:11.206Z,90.97
2022-10-23T07:08:11.209Z,91.48
2022-10-23T07:09:11.182Z,90.97
2022-10-23T07:10:11.225Z,90.97
2022-10-23T07:11:11.167Z,90.97
2022-10-23T07:12:11.165Z,91.38
2022-10-23T07:13:11.173Z,91.78
2022-10-23T07:14:11.141Z,91.64
2022-10-23T07:15:11.141Z,90.42
2022-10-23T07:16:11.112Z,90.01
2022-10-23T07:17:11.109Z,89.76
2022-10-23T07:18:11.116Z,89.05
2022-10-23T07:19:11.076Z,89.22
2022-10-23T07:20:11.083Z,88.81
2022-10-23T07:21:11.072Z,89.26
2022-10-23T07:22:13.420Z,88.54
2022-10-23T07:23:11.069Z,88.95
2022-10-23T07:24:11.049Z,89.36
2022-10-23T07:25:11.034Z,90.88
2022-10-23T07:26:10.998Z,90.07
2022-10-23T07:27:10.998Z,89.56
2022-10-23T07:28:10.993Z,90.48
2022-10-23T07:29:11.006Z,90.62
2022-10-23T07:30:10.965Z,90.92
2022-10-23T07:31:10.986Z,90.62
2022-10-23T07:32:10.970Z,90.11
2022-10-23T07:33:10.947Z,89.97
2022-10-23T07:34:10.952Z,90.01
2022-10-23T07:35:10.969Z,90.31
2022-10-23T07:36:10.965Z,91.74
2022-10-23T07:37:10.921Z,91.49
2022-10-23T07:38:10.905Z,91.69
2022-10-23T07:39:10.875Z,91.39
2022-10-23T07:40:10.871Z,91.49
2022-10-23T07:41:11.688Z,90.88
2022-10-23T07:42:10.862Z,91.80
2022-10-23T07:43:10.867Z,91.90
2022-10-23T07:44:10.851Z,91.60
2022-10-23T07:45:10.827Z,91.80
2022-10-23T07:46:10.835Z,91.94
2022-10-23T07:47:10.841Z,93.12
2022-10-23T07:48:10.779Z,91.69
2022-10-23T07:49:10.787Z,90.78
2022-10-23T07:50:10.772Z,90.68
2022-10-23T07:51:10.903Z,91.29
2022-10-23T07:52:10.779Z,91.09
2022-10-23T07:53:10.795Z,90.48
2022-10-23T07:54:10.747Z,90.78
2022-10-23T07:55:10.739Z,90.78
2022-10-23T07:56:10.698Z,90.88
2022-10-23T07:57:10.754Z,91.39
2022-10-23T07:58:10.693Z,91.09
2022-10-23T07:59:10.717Z,91.25
2022-10-23T08:00:10.778Z,91.14
2022-10-23T08:01:10.708Z,90.99
2022-10-23T08:02:10.705Z,91.60
2022-10-23T08:03:10.652Z,90.84
2022-10-23T08:04:10.633Z,90.84
2022-10-23T08:05:10.644Z,90.84
2022-10-23T08:06:10.625Z,90.94
2022-10-23T08:07:10.636Z,90.84
2022-10-23T08:08:10.576Z,90.94
2022-10-23T08:09:10.583Z,90.53
2022-10-23T08:10:10.593Z,90.53
2022-10-23T08:11:10.606Z,90.33
2022-10-23T08:12:10.575Z,90.68
2022-10-23T08:13:10.557Z,91.60
2022-10-23T08:14:10.531Z,91.29
2022-10-23T08:15:10.545Z,90.78
2022-10-23T08:16:10.516Z,90.88
2022-10-23T08:17:10.514Z,90.68
2022-10-23T08:18:10.483Z,92.36
2022-10-23T08:19:10.502Z,90.33
2022-10-23T08:20:10.466Z,90.74
2022-10-23T08:21:10.488Z,90.53
2022-10-23T08:22:10.444Z,90.33
2022-10-23T08:23:10.447Z,90.03
2022-10-23T08:24:10.415Z,90.03
2022-10-23T08:25:10.497Z,90.53
2022-10-23T08:26:10.413Z,90.33
2022-10-23T08:27:10.415Z,90.94
2022-10-23T08:28:10.395Z,90.70
2022-10-23T08:29:10.401Z,91.10
2022-10-23T08:30:10.408Z,90.39
2022-10-23T08:31:10.577Z,90.09
2022-10-23T08:32:11.122Z,91.10
2022-10-23T08:33:10.434Z,91.00
2022-10-23T08:34:10.451Z,90.39
2022-10-23T08:35:11.048Z,89.58
2022-10-23T08:36:10.416Z,89.48
2022-10-23T08:37:10.309Z,89.03
2022-10-23T08:38:10.271Z,88.42
2022-10-23T08:39:10.281Z,88.62
2022-10-23T08:40:10.366Z,88.67
2022-10-23T08:41:10.334Z,88.97
2022-10-23T08:43:10.259Z,90.05
2022-10-23T08:44:10.251Z,89.84
2022-10-23T08:45:10.562Z,89.54
2022-10-23T08:46:10.225Z,89.54
2022-10-23T08:47:10.240Z,89.64
2022-10-23T08:48:10.165Z,90.35
2022-10-23T08:49:10.244Z,90.00
2022-10-23T08:50:10.174Z,89.29
2022-10-23T08:51:10.151Z,89.19
2022-10-23T08:52:13.216Z,88.99
2022-10-23T08:53:10.177Z,88.99
2022-10-23T08:54:10.469Z,88.48
2022-10-23T08:55:10.112Z,88.28
2022-10-23T08:56:10.124Z,88.38
2022-10-23T08:57:10.110Z,87.57
2022-10-23T08:58:10.084Z,87.71
2022-10-23T08:59:10.100Z,88.42
2022-10-23T09:00:10.055Z,89.64
2022-10-23T09:01:10.218Z,89.23
2022-10-23T09:02:10.268Z,89.84
2022-10-23T09:03:10.031Z,88.82
2022-10-23T09:04:10.079Z,88.12
2022-10-23T09:05:10.012Z,88.01
2022-10-23T09:06:10.008Z,88.01
2022-10-23T09:08:09.982Z,87.37
2022-10-23T09:09:09.996Z,87.26
2022-10-23T09:10:09.958Z,87.46
2022-10-23T09:11:09.943Z,87.37
2022-10-23T09:12:09.948Z,87.37
2022-10-23T09:13:09.923Z,87.26
2022-10-23T09:14:09.982Z,87.16
2022-10-23T09:15:10.053Z,87.16
2022-10-23T09:16:09.922Z,87.26
2022-10-23T09:17:09.980Z,87.67
2022-10-23T09:18:09.954Z,87.67
2022-10-23T09:19:12.083Z,87.37
2022-10-23T09:20:09.872Z,86.86
2022-10-23T09:21:09.878Z,86.96
2022-10-23T09:22:09.878Z,86.86
2022-10-23T09:23:09.860Z,86.86
2022-10-23T09:24:09.827Z,86.96
2022-10-23T09:25:09.812Z,87.26
2022-10-23T09:26:09.842Z,87.26
2022-10-23T09:27:09.841Z,87.37
2022-10-23T09:28:09.772Z,87.46
2022-10-23T09:29:09.796Z,87.32
2022-10-23T09:30:09.759Z,87.12
2022-10-23T09:31:09.762Z,86.82
2022-10-23T09:32:09.763Z,86.71
2022-10-23T09:33:09.780Z,86.71
2022-10-23T09:34:11.711Z,86.82
2022-10-23T09:35:09.714Z,86.71
2022-10-23T09:36:09.703Z,86.71
2022-10-23T09:37:09.752Z,86.57
2022-10-23T09:38:09.731Z,86.68
2022-10-23T09:39:09.664Z,86.57
2022-10-23T09:40:09.710Z,86.47
2022-10-23T09:41:09.678Z,86.27
2022-10-23T09:42:09.675Z,86.07
2022-10-23T09:43:09.628Z,86.07
2022-10-23T09:44:09.635Z,86.16
2022-10-23T09:45:09.639Z,85.93
2022-10-23T09:46:09.640Z,85.72
2022-10-23T09:47:09.617Z,85.82
2022-10-23T09:48:09.611Z,85.11
2022-10-23T09:49:09.627Z,85.01
2022-10-23T09:50:09.559Z,85.07
2022-10-23T09:51:09.571Z,84.87
2022-10-23T09:52:09.553Z,84.87
2022-10-23T09:53:09.547Z,84.87
2022-10-23T09:54:09.545Z,84.97
2022-10-23T09:55:09.532Z,85.07
2022-10-23T09:56:09.510Z,85.07
2022-10-23T09:57:09.536Z,84.67
2022-10-23T09:58:09.485Z,84.87
2022-10-23T09:59:09.484Z,84.87
2022-10-23T10:00:09.468Z,84.77
2022-10-23T10:01:09.535Z,84.67
2022-10-23T10:02:09.593Z,84.63
2022-10-23T10:03:09.454Z,84.42
2022-10-23T10:04:09.446Z,84.42
2022-10-23T10:05:09.433Z,84.53
2022-10-23T10:06:09.419Z,84.53
2022-10-23T10:07:09.392Z,83.92
2022-10-23T10:08:09.409Z,84.12
2022-10-23T10:09:09.414Z,84.02
2022-10-23T10:10:09.383Z,84.33
2022-10-23T10:11:09.343Z,84.33
2022-10-23T10:12:09.367Z,84.53
2022-10-23T10:13:13.051Z,84.63
2022-10-23T10:14:09.351Z,84.42
2022-10-23T10:15:09.349Z,84.63
2022-10-23T10:16:09.302Z,84.42
2022-10-23T10:17:09.296Z,84.12
2022-10-23T10:18:09.336Z,84.12
2022-10-23T10:19:09.320Z,84.02
2022-10-23T10:20:09.276Z,84.02
2022-10-23T10:21:09.263Z,84.12
2022-10-23T10:22:09.282Z,83.82
2022-10-23T10:23:09.274Z,84.02
2022-10-23T10:24:09.253Z,84.42
2022-10-23T10:25:09.260Z,84.73
2022-10-23T10:26:09.211Z,84.53
2022-10-23T10:27:09.195Z,84.22
2022-10-23T10:28:09.234Z,83.61
2022-10-23T10:29:09.179Z,83.51
2022-10-23T10:30:09.214Z,83.51
2022-10-23T10:31:09.178Z,83.51
2022-10-23T10:32:09.179Z,83.82
2022-10-23T10:33:09.180Z,83.51
2022-10-23T10:34:09.149Z,83.72
2022-10-23T10:35:09.174Z,83.51
2022-10-23T10:36:09.114Z,83.41
2022-10-23T10:37:09.145Z,83.41
2022-10-23T10:38:09.129Z,83.31
2022-10-23T10:39:09.094Z,83.31
2022-10-23T10:40:09.111Z,83.41
2022-10-23T10:41:09.069Z,83.41
2022-10-23T10:42:09.078Z,83.41
2022-10-23T10:43:09.082Z,83.51
2022-10-23T10:44:09.038Z,83.72
2022-10-23T10:45:09.052Z,83.72
2022-10-23T10:46:09.061Z,83.72
2022-10-23T10:47:09.009Z,83.72
2022-10-23T10:48:09.013Z,83.72
2022-10-23T10:49:09.012Z,83.82
2022-10-23T10:50:09.043Z,83.72
2022-10-23T10:51:08.959Z,83.72
2022-10-23T10:52:08.980Z,83.82
2022-10-23T10:53:08.941Z,83.92
2022-10-23T10:54:09.002Z,84.12
2022-10-23T10:55:08.925Z,84.33
2022-10-23T10:57:08.930Z,84.22
2022-10-23T10:58:08.896Z,84.02
2022-10-23T10:59:08.907Z,83.58
2022-10-23T11:00:08.910Z,83.37
2022-10-23T11:01:09.017Z,83.27
2022-10-23T11:02:09.048Z,82.97
2022-10-23T11:03:08.858Z,83.07
2022-10-23T11:04:08.833Z,83.07
2022-10-23T11:05:08.864Z,82.87
2022-10-23T11:06:08.847Z,82.76
2022-10-23T11:07:08.848Z,82.76
2022-10-23T11:08:08.870Z,82.87
2022-10-23T11:09:20.457Z,82.67
2022-10-23T11:10:08.778Z,82.97
2022-10-23T11:11:08.846Z,83.17
2022-10-23T11:12:08.774Z,83.27
2022-10-23T11:13:08.768Z,82.87
2022-10-23T11:14:08.771Z,83.27
2022-10-23T11:15:08.723Z,83.37
2022-10-23T11:16:08.743Z,83.37
2022-10-23T11:17:08.713Z,83.37
2022-10-23T11:18:08.727Z,83.47
2022-10-23T11:19:11.503Z,83.27
2022-10-23T11:20:08.707Z,83.21
2022-10-23T11:21:08.694Z,83.27
2022-10-23T11:22:08.672Z,83.27
2022-10-23T11:23:08.655Z,83.17
2022-10-23T11:25:08.650Z,83.17
2022-10-23T11:26:08.662Z,82.46
2022-10-23T11:27:08.615Z,82.22
2022-10-23T11:28:10.786Z,82.32
2022-10-23T11:29:08.601Z,82.22
2022-10-23T11:30:08.615Z,82.02
2022-10-23T11:31:11.858Z,81.82
2022-10-23T11:32:08.568Z,81.71
2022-10-23T11:33:08.543Z,81.68
2022-10-23T11:34:08.575Z,81.57
2022-10-23T11:35:08.550Z,81.48
2022-10-23T11:36:08.521Z,81.27
2022-10-23T11:37:08.517Z,81.51
2022-10-23T11:38:08.534Z,81.92
2022-10-23T11:39:08.478Z,82.22
2022-10-23T11:40:08.480Z,82.32
2022-10-23T11:41:08.497Z,82.02
2022-10-23T11:42:08.493Z,82.22
2022-10-23T11:43:08.469Z,82.22
2022-10-23T11:44:08.445Z,81.92
2022-10-23T11:45:08.430Z,81.62
2022-10-23T11:46:08.419Z,80.80
2022-10-23T11:47:08.422Z,80.80
2022-10-23T11:48:08.442Z,80.66
2022-10-23T11:49:08.427Z,80.46
2022-10-23T11:50:08.402Z,80.32
2022-10-23T11:51:08.363Z,79.82
2022-10-23T11:52:08.380Z,80.32
2022-10-23T11:53:16.254Z,80.32
2022-10-23T11:54:08.410Z,79.62
2022-10-23T11:55:08.325Z,79.01
2022-10-23T11:56:08.331Z,79.32
2022-10-23T11:57:10.630Z,79.32
2022-10-23T11:58:08.301Z,79.41
2022-10-23T11:59:08.311Z,79.62
2022-10-23T12:00:08.305Z,79.62
2022-10-23T12:01:08.328Z,79.72
2022-10-23T12:02:08.324Z,79.08
2022-10-23T12:03:08.279Z,78.97
2022-10-23T12:04:08.279Z,78.77
2022-10-23T12:05:08.297Z,78.67
2022-10-23T12:06:08.234Z,78.06
2022-10-23T12:07:08.220Z,77.93
2022-10-23T12:08:08.239Z,78.17
2022-10-23T12:09:08.189Z,78.06
2022-10-23T12:10:08.196Z,78.13
2022-10-23T12:11:08.205Z,78.13
2022-10-23T12:12:08.178Z,78.33
2022-10-23T12:13:08.167Z,78.23
2022-10-23T12:14:08.207Z,77.73
2022-10-23T12:15:08.135Z,77.62
2022-10-23T12:16:08.122Z,77.73
2022-10-23T12:17:08.136Z,77.59
2022-10-23T12:18:08.163Z,77.59
2022-10-23T12:19:08.104Z,77.69
2022-10-23T12:20:08.090Z,77.69
2022-10-23T12:21:08.071Z,77.69
2022-10-23T12:22:08.088Z,77.59
2022-10-23T12:23:08.077Z,77.49
2022-10-23T12:24:08.048Z,76.75
2022-10-23T12:25:08.054Z,76.34
2022-10-23T12:26:08.034Z,76.18
2022-10-23T12:27:08.055Z,76.48
2022-10-23T12:28:08.006Z,76.48
2022-10-23T12:29:07.998Z,75.84
2022-10-23T12:30:08.011Z,75.74
2022-10-23T12:31:07.968Z,75.54
2022-10-23T12:32:07.979Z,75.74
2022-10-23T12:33:07.947Z,75.74
2022-10-23T12:34:07.963Z,76.04
2022-10-23T12:35:07.966Z,76.14
2022-10-23T12:36:07.928Z,75.84
2022-10-23T12:37:07.937Z,75.74
2022-10-23T12:38:07.921Z,75.54
2022-10-23T12:39:07.914Z,75.13
2022-10-23T12:40:07.899Z,74.93
2022-10-23T12:41:07.882Z,74.63
2022-10-23T12:42:07.878Z,74.63
2022-10-23T12:43:07.855Z,74.93
2022-10-23T12:44:07.853Z,75.23
2022-10-23T12:45:07.816Z,75.34
2022-10-23T12:46:07.850Z,74.73
2022-10-23T12:47:07.854Z,75.13
2022-10-23T12:48:07.800Z,74.93
2022-10-23T12:49:07.783Z,75.13
2022-10-23T12:50:07.772Z,75.23
2022-10-23T12:51:07.816Z,75.34
2022-10-23T12:52:07.818Z,75.23
2022-10-23T12:53:07.745Z,75.20
2022-10-23T12:54:07.750Z,74.99
2022-10-23T12:55:07.746Z,74.90
2022-10-23T12:56:07.721Z,74.99
2022-10-23T12:57:07.722Z,75.20